RYR8AG LZIB-LEBL
Flight info
| Callsign | RYR8AG |
|---|---|
| Flight time | N/A |
| Altitude | 36000 |
| Route | TOVKA DCT ABRUK DCT GEKBA DCT VAMTU DCT KOLON DCT GANGU DCT PADKO DCT DIVKO DCT NILDU DCT BISBA |
| Aircraft | B738/M-SDE2E3FGHIRWXY/LB1 |
Departure
| Time | 2026-05-04 11:47 |
|---|---|
| Airport | M. R. Štefánik Airport (LZIB) |
Arrival
| Time | N/A |
|---|---|
| Airport | Josep Tarradellas Barcelona-El Prat Airport (LEBL) |
| Time | Latitude | Longitude | Altitude | Speed | Heading |
|---|---|---|---|---|---|
| 2026-05-04 11:36 | 48.16919 | 17.20107 | 442 ft | 0 kts | 317° |
| 2026-05-04 11:41 | 48.16917 | 17.20109 | 442 ft | 1 kts | 317° |
| 2026-05-04 11:41 | 48.16906 | 17.20125 | 442 ft | 2 kts | 315° |
| 2026-05-04 11:41 | 48.16892 | 17.20142 | 442 ft | 3 kts | 341° |
| 2026-05-04 11:41 | 48.16875 | 17.20144 | 442 ft | 3 kts | 19° |
| 2026-05-04 11:42 | 48.16860 | 17.20132 | 442 ft | 2 kts | 38° |
| 2026-05-04 11:42 | 48.16857 | 17.20130 | 442 ft | 1 kts | 39° |
| 2026-05-04 11:44 | 48.16893 | 17.20174 | 434 ft | 15 kts | 41° |
| 2026-05-04 11:44 | 48.17004 | 17.20321 | 442 ft | 29 kts | 41° |
| 2026-05-04 11:44 | 48.17157 | 17.20548 | 429 ft | 28 kts | 34° |
| 2026-05-04 11:44 | 48.17291 | 17.20460 | 441 ft | 18 kts | 313° |
| 2026-05-04 11:45 | 48.17381 | 17.20329 | 441 ft | 18 kts | 323° |
| 2026-05-04 11:45 | 48.17496 | 17.20321 | 432 ft | 17 kts | 27° |
| 2026-05-04 11:45 | 48.17537 | 17.20437 | 429 ft | 11 kts | 101° |
| 2026-05-04 11:45 | 48.17515 | 17.20488 | 441 ft | 0 kts | 131° |
| 2026-05-04 11:46 | 48.17503 | 17.20508 | 441 ft | 21 kts | 131° |
| 2026-05-04 11:47 | 48.17177 | 17.21019 | 439 ft | 112 kts | 134° |
| 2026-05-04 11:47 | 48.16486 | 17.22109 | 691 ft | 164 kts | 133° |
| 2026-05-04 11:47 | 48.15669 | 17.23616 | 1228 ft | 203 kts | 131° |
| 2026-05-04 11:47 | 48.14750 | 17.25329 | 2010 ft | 223 kts | 131° |
| 2026-05-04 11:48 | 48.13798 | 17.27171 | 2869 ft | 226 kts | 130° |
| 2026-05-04 11:48 | 48.12825 | 17.29025 | 3790 ft | 227 kts | 130° |
| 2026-05-04 11:48 | 48.11862 | 17.30909 | 4682 ft | 231 kts | 130° |
| 2026-05-04 11:48 | 48.10890 | 17.32848 | 5559 ft | 235 kts | 131° |
| 2026-05-04 11:49 | 48.09965 | 17.34888 | 6388 ft | 244 kts | 116° |
| 2026-05-04 11:49 | 48.09753 | 17.37452 | 7112 ft | 260 kts | 86° |
| 2026-05-04 11:49 | 48.10358 | 17.40117 | 7417 ft | 290 kts | 58° |
| 2026-05-04 11:49 | 48.11845 | 17.42193 | 8113 ft | 300 kts | 27° |
| 2026-05-04 11:50 | 48.13752 | 17.42957 | 8940 ft | 299 kts | 0° |
| 2026-05-04 11:50 | 48.15785 | 17.42430 | 9768 ft | 298 kts | 334° |
| 2026-05-04 11:50 | 48.17449 | 17.40685 | 10509 ft | 301 kts | 310° |
| 2026-05-04 11:50 | 48.18567 | 17.37912 | 10712 ft | 322 kts | 288° |
| 2026-05-04 11:51 | 48.19264 | 17.34597 | 10918 ft | 345 kts | 284° |
| 2026-05-04 11:51 | 48.19905 | 17.31072 | 11233 ft | 363 kts | 283° |
| 2026-05-04 11:51 | 48.20566 | 17.27327 | 11870 ft | 370 kts | 283° |
| 2026-05-04 11:51 | 48.21229 | 17.23637 | 12606 ft | 373 kts | 284° |
| 2026-05-04 11:52 | 48.21920 | 17.19872 | 13367 ft | 376 kts | 284° |
| 2026-05-04 11:52 | 48.22635 | 17.16027 | 14089 ft | 380 kts | 284° |
| 2026-05-04 11:52 | 48.23351 | 17.12202 | 14794 ft | 383 kts | 284° |
| 2026-05-04 11:52 | 48.24074 | 17.08334 | 15478 ft | 386 kts | 284° |
| 2026-05-04 11:53 | 48.24801 | 17.04448 | 16179 ft | 388 kts | 284° |
| 2026-05-04 11:53 | 48.25534 | 17.00539 | 16814 ft | 392 kts | 284° |
| 2026-05-04 11:53 | 48.26215 | 16.96564 | 17443 ft | 394 kts | 277° |
| 2026-05-04 11:53 | 48.26180 | 16.92470 | 18058 ft | 394 kts | 258° |
| 2026-05-04 11:55 | 48.15809 | 16.67559 | 21788 ft | 416 kts | 236° |
| 2026-05-04 11:55 | 48.14176 | 16.63952 | 22250 ft | 420 kts | 236° |
| 2026-05-04 11:56 | 48.12532 | 16.60316 | 22679 ft | 424 kts | 236° |
| 2026-05-04 11:56 | 48.10872 | 16.56641 | 23086 ft | 427 kts | 236° |
| 2026-05-04 11:56 | 48.09202 | 16.52950 | 23513 ft | 430 kts | 236° |
| 2026-05-04 11:56 | 48.07540 | 16.49280 | 23943 ft | 433 kts | 236° |
| 2026-05-04 11:57 | 48.05845 | 16.45542 | 24330 ft | 436 kts | 236° |
| 2026-05-04 11:57 | 48.04135 | 16.41777 | 24743 ft | 439 kts | 236° |
| 2026-05-04 11:57 | 48.02413 | 16.37992 | 25145 ft | 441 kts | 236° |
| 2026-05-04 11:57 | 48.00684 | 16.34195 | 25561 ft | 443 kts | 236° |
| 2026-05-04 11:58 | 47.98953 | 16.30399 | 25932 ft | 445 kts | 236° |
| 2026-05-04 11:58 | 47.97202 | 16.26564 | 26260 ft | 448 kts | 237° |
| 2026-05-04 11:58 | 47.95439 | 16.22709 | 26615 ft | 450 kts | 237° |
| 2026-05-04 11:58 | 47.93673 | 16.18853 | 26973 ft | 451 kts | 237° |
| 2026-05-04 11:59 | 47.91894 | 16.14975 | 27307 ft | 453 kts | 237° |
| 2026-05-04 11:59 | 47.90113 | 16.11097 | 27624 ft | 455 kts | 237° |
| 2026-05-04 11:59 | 47.88312 | 16.07183 | 27925 ft | 458 kts | 237° |
| 2026-05-04 11:59 | 47.86506 | 16.03264 | 28199 ft | 460 kts | 237° |
| 2026-05-04 12:00 | 47.84691 | 15.99329 | 28512 ft | 461 kts | 237° |
| 2026-05-04 12:00 | 47.82874 | 15.95395 | 28809 ft | 463 kts | 237° |
| 2026-05-04 12:00 | 47.81051 | 15.91455 | 29223 ft | 461 kts | 237° |
| 2026-05-04 12:00 | 47.79236 | 15.87539 | 29672 ft | 459 kts | 237° |
| 2026-05-04 12:01 | 47.77430 | 15.83644 | 30066 ft | 457 kts | 237° |
| 2026-05-04 12:01 | 47.75622 | 15.79750 | 30400 ft | 457 kts | 237° |
| 2026-05-04 12:02 | 47.64848 | 15.56672 | 32494 ft | 451 kts | 238° |
| 2026-05-04 12:03 | 47.63060 | 15.52861 | 32831 ft | 450 kts | 237° |
| 2026-05-04 12:03 | 47.61267 | 15.49046 | 33108 ft | 450 kts | 238° |
| 2026-05-04 12:03 | 47.59478 | 15.45241 | 33366 ft | 450 kts | 237° |
| 2026-05-04 12:03 | 47.57692 | 15.41452 | 33692 ft | 449 kts | 238° |
| 2026-05-04 12:04 | 47.55903 | 15.37660 | 34034 ft | 447 kts | 237° |
| 2026-05-04 12:04 | 47.54127 | 15.33903 | 34342 ft | 446 kts | 238° |
| 2026-05-04 12:04 | 47.52349 | 15.30147 | 34606 ft | 445 kts | 237° |
| 2026-05-04 12:04 | 47.50569 | 15.26390 | 34874 ft | 445 kts | 237° |
| 2026-05-04 12:05 | 47.48792 | 15.22647 | 35135 ft | 444 kts | 237° |
| 2026-05-04 12:05 | 47.47014 | 15.18908 | 35402 ft | 444 kts | 238° |
| 2026-05-04 12:05 | 47.45245 | 15.15195 | 35647 ft | 443 kts | 238° |
| 2026-05-04 12:05 | 47.43493 | 15.11529 | 35885 ft | 442 kts | 238° |
| 2026-05-04 12:06 | 47.41729 | 15.07840 | 36151 ft | 441 kts | 238° |
| 2026-05-04 12:06 | 47.39954 | 15.04123 | 36357 ft | 441 kts | 238° |
| 2026-05-04 12:06 | 47.38198 | 15.00403 | 36535 ft | 441 kts | 240° |
| 2026-05-04 12:06 | 47.36642 | 14.96536 | 36773 ft | 438 kts | 243° |
| 2026-05-04 12:07 | 47.35166 | 14.92616 | 37108 ft | 434 kts | 243° |
| 2026-05-04 12:07 | 47.33727 | 14.88726 | 37445 ft | 430 kts | 243° |
| 2026-05-04 12:07 | 47.32284 | 14.84820 | 37743 ft | 427 kts | 244° |
| 2026-05-04 12:07 | 47.30858 | 14.80978 | 37905 ft | 427 kts | 244° |
| 2026-05-04 12:08 | 47.27979 | 14.73313 | 38024 ft | 429 kts | 243° |
| 2026-05-04 12:08 | 47.25062 | 14.65637 | 38015 ft | 430 kts | 243° |
| 2026-05-04 12:09 | 47.22129 | 14.57973 | 38007 ft | 430 kts | 243° |
| 2026-05-04 12:09 | 47.19190 | 14.50307 | 38011 ft | 430 kts | 243° |
| 2026-05-04 12:10 | 47.16273 | 14.42719 | 38041 ft | 429 kts | 243° |
| 2026-05-04 12:10 | 47.13319 | 14.35050 | 38030 ft | 428 kts | 243° |
| 2026-05-04 12:11 | 47.10403 | 14.27505 | 38023 ft | 428 kts | 243° |
| 2026-05-04 12:11 | 47.07464 | 14.19924 | 38031 ft | 427 kts | 242° |
| 2026-05-04 12:12 | 47.04518 | 14.12343 | 38042 ft | 428 kts | 243° |
| 2026-05-04 12:12 | 47.03040 | 14.08549 | 38196 ft | 429 kts | 242° |
| 2026-05-04 12:12 | 47.01567 | 14.04774 | 38427 ft | 427 kts | 243° |
| 2026-05-04 12:13 | 47.00095 | 14.01005 | 38634 ft | 425 kts | 243° |
| 2026-05-04 12:14 | 46.89795 | 13.74778 | 39035 ft | 421 kts | 242° |
| 2026-05-04 12:15 | 46.86879 | 13.67402 | 39045 ft | 418 kts | 242° |
| 2026-05-04 12:15 | 46.83968 | 13.60059 | 39046 ft | 417 kts | 242° |
| 2026-05-04 12:16 | 46.81040 | 13.52685 | 39037 ft | 423 kts | 242° |
| 2026-05-04 12:16 | 46.78063 | 13.45211 | 39041 ft | 428 kts | 241° |
| 2026-05-04 12:17 | 46.75055 | 13.37684 | 39056 ft | 431 kts | 242° |
| 2026-05-04 12:17 | 46.72548 | 13.31427 | 39046 ft | 429 kts | 242° |
| 2026-05-04 12:18 | 46.69559 | 13.23979 | 39090 ft | 421 kts | 242° |
| 2026-05-04 12:18 | 46.66602 | 13.16628 | 39095 ft | 421 kts | 242° |
| 2026-05-04 12:19 | 46.63634 | 13.09277 | 39103 ft | 420 kts | 242° |
| 2026-05-04 12:19 | 46.60665 | 13.01948 | 39097 ft | 421 kts | 242° |
| 2026-05-04 12:20 | 46.57688 | 12.94612 | 39113 ft | 421 kts | 242° |
| 2026-05-04 12:20 | 46.54703 | 12.87280 | 39111 ft | 422 kts | 241° |
| 2026-05-04 12:21 | 46.51702 | 12.79926 | 39108 ft | 423 kts | 241° |
| 2026-05-04 12:21 | 46.48692 | 12.72566 | 39116 ft | 424 kts | 241° |
| 2026-05-04 12:22 | 46.45689 | 12.65243 | 39104 ft | 425 kts | 240° |
| 2026-05-04 12:22 | 46.42661 | 12.57883 | 39092 ft | 426 kts | 240° |
| 2026-05-04 12:23 | 46.39612 | 12.50500 | 39125 ft | 427 kts | 240° |
| 2026-05-04 12:23 | 46.36564 | 12.43126 | 39114 ft | 427 kts | 240° |
| 2026-05-04 12:24 | 46.33508 | 12.35754 | 39122 ft | 427 kts | 241° |
| 2026-05-04 12:24 | 46.30445 | 12.28380 | 39126 ft | 427 kts | 240° |
| 2026-05-04 12:25 | 46.27388 | 12.21046 | 39149 ft | 426 kts | 240° |
| 2026-05-04 12:25 | 46.24332 | 12.13736 | 39153 ft | 425 kts | 240° |
| 2026-05-04 12:26 | 46.21270 | 12.06433 | 39154 ft | 424 kts | 240° |
| 2026-05-04 12:26 | 46.18220 | 11.99179 | 39194 ft | 422 kts | 240° |
| 2026-05-04 12:27 | 46.15175 | 11.91947 | 39180 ft | 422 kts | 240° |
| 2026-05-04 12:27 | 46.12120 | 11.84713 | 39198 ft | 422 kts | 240° |
| 2026-05-04 12:28 | 46.09067 | 11.77501 | 39197 ft | 422 kts | 240° |
| 2026-05-04 12:28 | 46.06001 | 11.70283 | 39187 ft | 423 kts | 240° |
| 2026-05-04 12:29 | 46.02915 | 11.63037 | 39170 ft | 424 kts | 239° |
| 2026-05-04 12:29 | 45.99828 | 11.55804 | 39140 ft | 425 kts | 239° |
| 2026-05-04 12:30 | 45.96737 | 11.48577 | 39152 ft | 424 kts | 240° |
| 2026-05-04 12:30 | 45.93642 | 11.41360 | 39173 ft | 424 kts | 240° |
| 2026-05-04 12:31 | 45.90542 | 11.34156 | 39175 ft | 424 kts | 240° |
| 2026-05-04 12:31 | 45.87450 | 11.26986 | 39154 ft | 425 kts | 240° |
| 2026-05-04 12:32 | 45.82758 | 11.16138 | 39125 ft | 424 kts | 240° |
| 2026-05-04 12:33 | 45.79673 | 11.09027 | 39146 ft | 423 kts | 240° |
| 2026-05-04 12:33 | 45.76568 | 11.01894 | 39139 ft | 422 kts | 239° |
| 2026-05-04 12:34 | 45.73465 | 10.94773 | 39141 ft | 421 kts | 240° |
| 2026-05-04 12:34 | 45.70372 | 10.87701 | 39134 ft | 419 kts | 240° |
| 2026-05-04 12:35 | 45.67275 | 10.80636 | 39104 ft | 419 kts | 240° |
| 2026-05-04 12:35 | 45.65202 | 10.75917 | 39091 ft | 419 kts | 240° |